sensor_id;sensor_type;location;lat;lon;timestamp;P1;durP1;ratioP1;P2;durP2;ratioP2
40599;SDS011;26309;50.924;4.754;2023-03-01T00:01:59;30.03;;;20.50;;
40599;SDS011;26309;50.924;4.754;2023-03-01T00:04:25;32.90;;;22.30;;
40599;SDS011;26309;50.924;4.754;2023-03-01T00:06:52;33.37;;;20.77;;
40599;SDS011;26309;50.924;4.754;2023-03-01T00:09:18;27.37;;;18.70;;
40599;SDS011;26309;50.924;4.754;2023-03-01T00:11:44;26.10;;;17.70;;
40599;SDS011;26309;50.924;4.754;2023-03-01T00:14:10;29.27;;;20.17;;
40599;SDS011;26309;50.924;4.754;2023-03-01T00:16:39;28.73;;;19.50;;
40599;SDS011;26309;50.924;4.754;2023-03-01T00:19:09;27.90;;;18.00;;
40599;SDS011;26309;50.924;4.754;2023-03-01T00:21:41;27.03;;;17.20;;
40599;SDS011;26309;50.924;4.754;2023-03-01T00:24:09;24.93;;;17.70;;
40599;SDS011;26309;50.924;4.754;2023-03-01T00:26:35;26.63;;;17.83;;
40599;SDS011;26309;50.924;4.754;2023-03-01T00:29:02;28.80;;;19.20;;
40599;SDS011;26309;50.924;4.754;2023-03-01T00:31:29;28.07;;;19.43;;
40599;SDS011;26309;50.924;4.754;2023-03-01T00:33:57;26.83;;;18.73;;
40599;SDS011;26309;50.924;4.754;2023-03-01T00:36:26;27.30;;;18.43;;
40599;SDS011;26309;50.924;4.754;2023-03-01T00:38:54;27.43;;;17.77;;
40599;SDS011;26309;50.924;4.754;2023-03-01T00:41:20;29.47;;;17.80;;
40599;SDS011;26309;50.924;4.754;2023-03-01T00:43:51;29.03;;;19.10;;
40599;SDS011;26309;50.924;4.754;2023-03-01T00:46:19;33.13;;;21.33;;
40599;SDS011;26309;50.924;4.754;2023-03-01T00:48:46;30.90;;;19.43;;
40599;SDS011;26309;50.924;4.754;2023-03-01T00:51:13;27.33;;;18.57;;
40599;SDS011;26309;50.924;4.754;2023-03-01T00:53:42;28.00;;;19.10;;
40599;SDS011;26309;50.924;4.754;2023-03-01T00:56:09;28.93;;;19.60;;
40599;SDS011;26309;50.924;4.754;2023-03-01T00:58:36;28.87;;;19.13;;
40599;SDS011;26309;50.924;4.754;2023-03-01T01:01:10;33.07;;;20.17;;
40599;SDS011;26309;50.924;4.754;2023-03-01T01:03:46;29.20;;;19.00;;
40599;SDS011;26309;50.924;4.754;2023-03-01T01:06:21;27.63;;;18.33;;
40599;SDS011;26309;50.924;4.754;2023-03-01T01:08:49;29.60;;;18.37;;
40599;SDS011;26309;50.924;4.754;2023-03-01T01:11:15;26.03;;;18.43;;
40599;SDS011;26309;50.924;4.754;2023-03-01T01:13:43;31.23;;;19.07;;
40599;SDS011;26309;50.924;4.754;2023-03-01T01:16:10;27.83;;;18.73;;
40599;SDS011;26309;50.924;4.754;2023-03-01T01:18:36;29.60;;;18.50;;
40599;SDS011;26309;50.924;4.754;2023-03-01T01:21:03;25.67;;;17.20;;
40599;SDS011;26309;50.924;4.754;2023-03-01T01:23:34;27.70;;;17.73;;
40599;SDS011;26309;50.924;4.754;2023-03-01T01:26:04;26.10;;;18.80;;
40599;SDS011;26309;50.924;4.754;2023-03-01T01:28:35;23.47;;;16.27;;
40599;SDS011;26309;50.924;4.754;2023-03-01T01:31:01;25.83;;;16.80;;
40599;SDS011;26309;50.924;4.754;2023-03-01T01:33:27;25.77;;;17.00;;
40599;SDS011;26309;50.924;4.754;2023-03-01T01:35:53;27.67;;;17.33;;
40599;SDS011;26309;50.924;4.754;2023-03-01T01:38:19;23.17;;;15.87;;
40599;SDS011;26309;50.924;4.754;2023-03-01T01:40:46;25.20;;;16.47;;
40599;SDS011;26309;50.924;4.754;2023-03-01T01:43:26;25.83;;;17.43;;
40599;SDS011;26309;50.924;4.754;2023-03-01T01:46:00;27.93;;;17.77;;
40599;SDS011;26309;50.924;4.754;2023-03-01T01:48:32;23.97;;;16.87;;
40599;SDS011;26309;50.924;4.754;2023-03-01T01:51:13;26.20;;;18.07;;
40599;SDS011;26309;50.924;4.754;2023-03-01T01:53:51;25.77;;;17.77;;
40599;SDS011;26309;50.924;4.754;2023-03-01T01:56:22;24.17;;;16.57;;
40599;SDS011;26309;50.924;4.754;2023-03-01T01:58:51;25.50;;;18.03;;
40599;SDS011;26309;50.924;4.754;2023-03-01T02:01:17;24.97;;;16.40;;
40599;SDS011;26309;50.924;4.754;2023-03-01T02:03:44;25.23;;;16.50;;
40599;SDS011;26309;50.924;4.754;2023-03-01T02:08:59;26.00;;;17.70;;
40599;SDS011;26309;50.924;4.754;2023-03-01T02:11:29;28.50;;;18.67;;
40599;SDS011;26309;50.924;4.754;2023-03-01T02:13:56;35.10;;;23.07;;
40599;SDS011;26309;50.924;4.754;2023-03-01T02:16:22;33.70;;;21.33;;
40599;SDS011;26309;50.924;4.754;2023-03-01T02:18:48;35.13;;;21.63;;
40599;SDS011;26309;50.924;4.754;2023-03-01T02:21:36;29.23;;;20.23;;
40599;SDS011;26309;50.924;4.754;2023-03-01T02:27:19;32.07;;;20.73;;
40599;SDS011;26309;50.924;4.754;2023-03-01T02:29:50;29.23;;;19.53;;
40599;SDS011;26309;50.924;4.754;2023-03-01T02:34:53;29.60;;;18.33;;
40599;SDS011;26309;50.924;4.754;2023-03-01T02:37:20;28.30;;;18.30;;
40599;SDS011;26309;50.924;4.754;2023-03-01T02:39:59;28.60;;;18.60;;
40599;SDS011;26309;50.924;4.754;2023-03-01T02:42:31;25.77;;;17.37;;
40599;SDS011;26309;50.924;4.754;2023-03-01T02:45:02;25.13;;;16.73;;
40599;SDS011;26309;50.924;4.754;2023-03-01T02:47:28;24.20;;;16.97;;
40599;SDS011;26309;50.924;4.754;2023-03-01T02:49:54;23.47;;;17.27;;
40599;SDS011;26309;50.924;4.754;2023-03-01T02:55:11;24.93;;;16.37;;
40599;SDS011;26309;50.924;4.754;2023-03-01T02:57:43;29.23;;;16.30;;
40599;SDS011;26309;50.924;4.754;2023-03-01T03:00:14;23.07;;;16.50;;
40599;SDS011;26309;50.924;4.754;2023-03-01T03:02:46;20.70;;;16.10;;
40599;SDS011;26309;50.924;4.754;2023-03-01T03:05:18;26.00;;;15.93;;
40599;SDS011;26309;50.924;4.754;2023-03-01T03:07:47;27.10;;;17.30;;
40599;SDS011;26309;50.924;4.754;2023-03-01T03:10:15;24.67;;;16.43;;
40599;SDS011;26309;50.924;4.754;2023-03-01T03:12:47;24.47;;;15.73;;
40599;SDS011;26309;50.924;4.754;2023-03-01T03:15:18;23.40;;;16.33;;
40599;SDS011;26309;50.924;4.754;2023-03-01T03:17:45;25.00;;;16.83;;
40599;SDS011;26309;50.924;4.754;2023-03-01T03:20:13;29.10;;;16.53;;
40599;SDS011;26309;50.924;4.754;2023-03-01T03:22:44;28.33;;;17.80;;
40599;SDS011;26309;50.924;4.754;2023-03-01T03:25:12;30.90;;;17.57;;
40599;SDS011;26309;50.924;4.754;2023-03-01T03:27:39;27.03;;;16.30;;
40599;SDS011;26309;50.924;4.754;2023-03-01T03:30:07;26.73;;;17.57;;
40599;SDS011;26309;50.924;4.754;2023-03-01T03:32:37;27.10;;;16.50;;
40599;SDS011;26309;50.924;4.754;2023-03-01T03:35:05;24.40;;;16.43;;
40599;SDS011;26309;50.924;4.754;2023-03-01T03:37:38;23.93;;;16.33;;
40599;SDS011;26309;50.924;4.754;2023-03-01T03:40:24;22.90;;;15.50;;
40599;SDS011;26309;50.924;4.754;2023-03-01T03:42:51;23.63;;;16.10;;
40599;SDS011;26309;50.924;4.754;2023-03-01T03:45:17;27.00;;;16.33;;
40599;SDS011;26309;50.924;4.754;2023-03-01T03:47:43;27.23;;;15.70;;
40599;SDS011;26309;50.924;4.754;2023-03-01T03:50:10;30.77;;;17.27;;
40599;SDS011;26309;50.924;4.754;2023-03-01T03:52:37;26.70;;;16.70;;
40599;SDS011;26309;50.924;4.754;2023-03-01T03:55:04;24.67;;;16.17;;
40599;SDS011;26309;50.924;4.754;2023-03-01T03:57:39;24.30;;;14.77;;
40599;SDS011;26309;50.924;4.754;2023-03-01T04:00:07;24.73;;;16.47;;
40599;SDS011;26309;50.924;4.754;2023-03-01T04:02:41;28.73;;;17.23;;
40599;SDS011;26309;50.924;4.754;2023-03-01T04:05:08;23.43;;;15.90;;
40599;SDS011;26309;50.924;4.754;2023-03-01T04:07:36;29.20;;;17.27;;
40599;SDS011;26309;50.924;4.754;2023-03-01T04:10:06;23.50;;;15.80;;
40599;SDS011;26309;50.924;4.754;2023-03-01T04:12:37;25.70;;;16.03;;
40599;SDS011;26309;50.924;4.754;2023-03-01T04:15:03;23.73;;;15.73;;
40599;SDS011;26309;50.924;4.754;2023-03-01T04:17:47;25.97;;;16.27;;
40599;SDS011;26309;50.924;4.754;2023-03-01T04:20:14;24.50;;;15.93;;
40599;SDS011;26309;50.924;4.754;2023-03-01T04:22:42;27.77;;;16.40;;
40599;SDS011;26309;50.924;4.754;2023-03-01T04:25:12;25.77;;;16.40;;
40599;SDS011;26309;50.924;4.754;2023-03-01T04:27:39;26.03;;;15.73;;
40599;SDS011;26309;50.924;4.754;2023-03-01T04:30:06;24.33;;;15.80;;
40599;SDS011;26309;50.924;4.754;2023-03-01T04:32:32;26.60;;;16.47;;
40599;SDS011;26309;50.924;4.754;2023-03-01T04:34:58;27.50;;;16.03;;
40599;SDS011;26309;50.924;4.754;2023-03-01T04:37:25;26.33;;;16.77;;
40599;SDS011;26309;50.924;4.754;2023-03-01T04:39:51;25.40;;;15.67;;
40599;SDS011;26309;50.924;4.754;2023-03-01T04:42:17;25.20;;;16.30;;
40599;SDS011;26309;50.924;4.754;2023-03-01T04:44:44;24.67;;;16.00;;
40599;SDS011;26309;50.924;4.754;2023-03-01T04:47:11;23.30;;;14.97;;
40599;SDS011;26309;50.924;4.754;2023-03-01T04:49:37;26.70;;;14.80;;
40599;SDS011;26309;50.924;4.754;2023-03-01T04:52:03;25.50;;;15.17;;
40599;SDS011;26309;50.924;4.754;2023-03-01T04:54:33;23.33;;;15.10;;
40599;SDS011;26309;50.924;4.754;2023-03-01T04:57:00;23.80;;;15.20;;
40599;SDS011;26309;50.924;4.754;2023-03-01T04:59:26;23.93;;;14.93;;
40599;SDS011;26309;50.924;4.754;2023-03-01T05:01:54;22.33;;;15.23;;
40599;SDS011;26309;50.924;4.754;2023-03-01T05:04:21;25.40;;;15.93;;
40599;SDS011;26309;50.924;4.754;2023-03-01T05:06:48;22.57;;;14.83;;
40599;SDS011;26309;50.924;4.754;2023-03-01T05:09:14;22.53;;;14.97;;
40599;SDS011;26309;50.924;4.754;2023-03-01T05:11:40;23.13;;;15.23;;
40599;SDS011;26309;50.924;4.754;2023-03-01T05:14:06;23.13;;;14.67;;
40599;SDS011;26309;50.924;4.754;2023-03-01T05:16:33;24.93;;;13.87;;
40599;SDS011;26309;50.924;4.754;2023-03-01T05:19:01;22.83;;;15.47;;
40599;SDS011;26309;50.924;4.754;2023-03-01T05:21:39;25.20;;;14.63;;
40599;SDS011;26309;50.924;4.754;2023-03-01T05:24:25;26.37;;;14.93;;
40599;SDS011;26309;50.924;4.754;2023-03-01T05:26:52;21.53;;;14.70;;
40599;SDS011;26309;50.924;4.754;2023-03-01T05:29:19;26.00;;;15.03;;
40599;SDS011;26309;50.924;4.754;2023-03-01T05:31:56;27.90;;;14.97;;
40599;SDS011;26309;50.924;4.754;2023-03-01T05:34:24;24.73;;;14.63;;
40599;SDS011;26309;50.924;4.754;2023-03-01T05:36:51;25.30;;;14.97;;
40599;SDS011;26309;50.924;4.754;2023-03-01T05:39:21;24.53;;;15.80;;
40599;SDS011;26309;50.924;4.754;2023-03-01T05:41:51;25.03;;;15.30;;
40599;SDS011;26309;50.924;4.754;2023-03-01T05:44:19;25.37;;;15.67;;
40599;SDS011;26309;50.924;4.754;2023-03-01T05:46:45;25.10;;;16.40;;
40599;SDS011;26309;50.924;4.754;2023-03-01T05:49:11;26.37;;;17.00;;
40599;SDS011;26309;50.924;4.754;2023-03-01T05:51:41;26.90;;;16.43;;
40599;SDS011;26309;50.924;4.754;2023-03-01T05:54:08;26.40;;;16.17;;
40599;SDS011;26309;50.924;4.754;2023-03-01T05:56:34;26.10;;;16.50;;
40599;SDS011;26309;50.924;4.754;2023-03-01T05:59:03;24.50;;;16.57;;
40599;SDS011;26309;50.924;4.754;2023-03-01T06:01:33;26.63;;;17.20;;
40599;SDS011;26309;50.924;4.754;2023-03-01T06:03:59;24.30;;;16.63;;
40599;SDS011;26309;50.924;4.754;2023-03-01T06:06:25;25.87;;;16.33;;
40599;SDS011;26309;50.924;4.754;2023-03-01T06:08:51;26.53;;;17.00;;
40599;SDS011;26309;50.924;4.754;2023-03-01T06:11:18;24.13;;;15.33;;
40599;SDS011;26309;50.924;4.754;2023-03-01T06:13:45;24.13;;;14.90;;
40599;SDS011;26309;50.924;4.754;2023-03-01T06:16:12;23.03;;;15.63;;
40599;SDS011;26309;50.924;4.754;2023-03-01T06:18:38;21.33;;;14.77;;
40599;SDS011;26309;50.924;4.754;2023-03-01T06:21:05;24.40;;;15.50;;
40599;SDS011;26309;50.924;4.754;2023-03-01T06:23:31;22.80;;;15.67;;
40599;SDS011;26309;50.924;4.754;2023-03-01T06:25:58;24.07;;;16.93;;
40599;SDS011;26309;50.924;4.754;2023-03-01T06:28:24;28.23;;;16.93;;
40599;SDS011;26309;50.924;4.754;2023-03-01T06:30:50;25.73;;;15.17;;
40599;SDS011;26309;50.924;4.754;2023-03-01T06:33:17;23.93;;;15.30;;
40599;SDS011;26309;50.924;4.754;2023-03-01T06:35:45;26.40;;;15.47;;
40599;SDS011;26309;50.924;4.754;2023-03-01T06:38:12;23.90;;;15.67;;
40599;SDS011;26309;50.924;4.754;2023-03-01T06:40:40;24.73;;;15.70;;
40599;SDS011;26309;50.924;4.754;2023-03-01T06:43:07;27.80;;;16.67;;
40599;SDS011;26309;50.924;4.754;2023-03-01T06:45:33;23.97;;;15.17;;
40599;SDS011;26309;50.924;4.754;2023-03-01T06:48:06;24.53;;;15.50;;
40599;SDS011;26309;50.924;4.754;2023-03-01T06:50:33;24.97;;;16.23;;
40599;SDS011;26309;50.924;4.754;2023-03-01T06:53:00;24.50;;;15.90;;
40599;SDS011;26309;50.924;4.754;2023-03-01T06:55:25;26.13;;;16.13;;
40599;SDS011;26309;50.924;4.754;2023-03-01T06:57:58;24.27;;;16.07;;
40599;SDS011;26309;50.924;4.754;2023-03-01T07:00:25;22.50;;;15.00;;
40599;SDS011;26309;50.924;4.754;2023-03-01T07:02:52;24.27;;;16.80;;
40599;SDS011;26309;50.924;4.754;2023-03-01T07:05:18;24.57;;;15.73;;
40599;SDS011;26309;50.924;4.754;2023-03-01T07:07:44;35.17;;;18.77;;
40599;SDS011;26309;50.924;4.754;2023-03-01T07:10:10;36.10;;;21.00;;
40599;SDS011;26309;50.924;4.754;2023-03-01T07:12:37;32.00;;;19.87;;
40599;SDS011;26309;50.924;4.754;2023-03-01T07:15:03;35.33;;;18.27;;
40599;SDS011;26309;50.924;4.754;2023-03-01T07:17:29;27.27;;;16.87;;
40599;SDS011;26309;50.924;4.754;2023-03-01T07:19:56;24.97;;;16.43;;
40599;SDS011;26309;50.924;4.754;2023-03-01T07:22:22;32.90;;;17.77;;
40599;SDS011;26309;50.924;4.754;2023-03-01T07:24:48;31.67;;;19.60;;
40599;SDS011;26309;50.924;4.754;2023-03-01T07:27:14;47.33;;;21.53;;
40599;SDS011;26309;50.924;4.754;2023-03-01T07:29:40;36.37;;;21.63;;
40599;SDS011;26309;50.924;4.754;2023-03-01T07:32:06;32.93;;;19.00;;
40599;SDS011;26309;50.924;4.754;2023-03-01T07:34:32;29.40;;;18.80;;
40599;SDS011;26309;50.924;4.754;2023-03-01T07:36:57;32.67;;;17.83;;
40599;SDS011;26309;50.924;4.754;2023-03-01T07:39:23;26.80;;;18.17;;
40599;SDS011;26309;50.924;4.754;2023-03-01T07:41:49;30.50;;;18.97;;
40599;SDS011;26309;50.924;4.754;2023-03-01T07:44:16;28.30;;;18.73;;
40599;SDS011;26309;50.924;4.754;2023-03-01T07:46:42;35.23;;;19.57;;
40599;SDS011;26309;50.924;4.754;2023-03-01T07:49:09;31.93;;;18.83;;
40599;SDS011;26309;50.924;4.754;2023-03-01T07:51:35;37.97;;;22.67;;
40599;SDS011;26309;50.924;4.754;2023-03-01T07:54:01;31.93;;;20.17;;
40599;SDS011;26309;50.924;4.754;2023-03-01T07:56:27;24.80;;;17.20;;
40599;SDS011;26309;50.924;4.754;2023-03-01T07:58:53;27.10;;;17.63;;
40599;SDS011;26309;50.924;4.754;2023-03-01T08:01:20;27.50;;;17.43;;
40599;SDS011;26309;50.924;4.754;2023-03-01T08:03:46;26.60;;;17.80;;
40599;SDS011;26309;50.924;4.754;2023-03-01T08:06:13;25.47;;;17.47;;
40599;SDS011;26309;50.924;4.754;2023-03-01T08:08:42;25.37;;;16.07;;
40599;SDS011;26309;50.924;4.754;2023-03-01T08:11:10;23.93;;;16.17;;
40599;SDS011;26309;50.924;4.754;2023-03-01T08:13:39;23.27;;;16.03;;
40599;SDS011;26309;50.924;4.754;2023-03-01T08:16:07;23.00;;;15.67;;
40599;SDS011;26309;50.924;4.754;2023-03-01T08:18:35;25.00;;;15.50;;
40599;SDS011;26309;50.924;4.754;2023-03-01T08:21:10;24.73;;;14.80;;
40599;SDS011;26309;50.924;4.754;2023-03-01T08:23:38;23.13;;;14.87;;
40599;SDS011;26309;50.924;4.754;2023-03-01T08:26:08;22.13;;;14.80;;
40599;SDS011;26309;50.924;4.754;2023-03-01T08:28:35;22.10;;;14.77;;
40599;SDS011;26309;50.924;4.754;2023-03-01T08:31:01;18.53;;;12.77;;
40599;SDS011;26309;50.924;4.754;2023-03-01T08:33:28;24.10;;;13.87;;
40599;SDS011;26309;50.924;4.754;2023-03-01T08:36:02;19.93;;;13.90;;
40599;SDS011;26309;50.924;4.754;2023-03-01T08:38:29;15.57;;;12.63;;
40599;SDS011;26309;50.924;4.754;2023-03-01T08:40:55;22.43;;;13.50;;
40599;SDS011;26309;50.924;4.754;2023-03-01T08:43:23;18.33;;;13.00;;
40599;SDS011;26309;50.924;4.754;2023-03-01T08:45:49;21.10;;;13.07;;
40599;SDS011;26309;50.924;4.754;2023-03-01T08:48:15;21.57;;;13.67;;
40599;SDS011;26309;50.924;4.754;2023-03-01T08:50:41;18.90;;;13.73;;
40599;SDS011;26309;50.924;4.754;2023-03-01T08:53:07;18.43;;;12.67;;
40599;SDS011;26309;50.924;4.754;2023-03-01T08:55:33;19.83;;;13.23;;
40599;SDS011;26309;50.924;4.754;2023-03-01T08:57:58;15.63;;;10.33;;
40599;SDS011;26309;50.924;4.754;2023-03-01T09:00:24;21.63;;;13.50;;
40599;SDS011;26309;50.924;4.754;2023-03-01T09:02:50;18.40;;;12.73;;
40599;SDS011;26309;50.924;4.754;2023-03-01T09:05:16;17.03;;;12.20;;
40599;SDS011;26309;50.924;4.754;2023-03-01T09:07:42;17.83;;;12.87;;
40599;SDS011;26309;50.924;4.754;2023-03-01T09:10:08;18.77;;;12.13;;
40599;SDS011;26309;50.924;4.754;2023-03-01T09:12:34;17.67;;;13.17;;
40599;SDS011;26309;50.924;4.754;2023-03-01T09:15:00;18.77;;;13.00;;
40599;SDS011;26309;50.924;4.754;2023-03-01T09:17:26;16.20;;;12.43;;
40599;SDS011;26309;50.924;4.754;2023-03-01T09:19:52;21.33;;;13.53;;
40599;SDS011;26309;50.924;4.754;2023-03-01T09:22:19;20.73;;;13.67;;
40599;SDS011;26309;50.924;4.754;2023-03-01T09:24:44;17.13;;;13.27;;
40599;SDS011;26309;50.924;4.754;2023-03-01T09:27:11;16.60;;;11.63;;
40599;SDS011;26309;50.924;4.754;2023-03-01T09:29:38;21.03;;;13.43;;
40599;SDS011;26309;50.924;4.754;2023-03-01T09:32:04;20.13;;;13.53;;
40599;SDS011;26309;50.924;4.754;2023-03-01T09:34:31;21.13;;;13.87;;
40599;SDS011;26309;50.924;4.754;2023-03-01T09:37:17;20.17;;;13.07;;
40599;SDS011;26309;50.924;4.754;2023-03-01T09:39:43;19.27;;;12.60;;
40599;SDS011;26309;50.924;4.754;2023-03-01T09:42:11;17.77;;;12.73;;
40599;SDS011;26309;50.924;4.754;2023-03-01T09:44:40;17.70;;;13.50;;
40599;SDS011;26309;50.924;4.754;2023-03-01T09:47:12;18.13;;;12.83;;
40599;SDS011;26309;50.924;4.754;2023-03-01T09:49:44;15.47;;;9.90;;
40599;SDS011;26309;50.924;4.754;2023-03-01T09:52:29;19.53;;;12.30;;
40599;SDS011;26309;50.924;4.754;2023-03-01T09:55:26;15.50;;;10.47;;
40599;SDS011;26309;50.924;4.754;2023-03-01T09:58:25;22.70;;;14.37;;
40599;SDS011;26309;50.924;4.754;2023-03-01T10:00:53;19.93;;;11.27;;
40599;SDS011;26309;50.924;4.754;2023-03-01T10:08:55;20.50;;;11.90;;
40599;SDS011;26309;50.924;4.754;2023-03-01T10:11:24;15.13;;;11.73;;
40599;SDS011;26309;50.924;4.754;2023-03-01T10:16:26;17.97;;;13.63;;
40599;SDS011;26309;50.924;4.754;2023-03-01T10:19:03;17.97;;;12.37;;
40599;SDS011;26309;50.924;4.754;2023-03-01T10:21:31;20.53;;;13.93;;
40599;SDS011;26309;50.924;4.754;2023-03-01T10:24:13;17.47;;;12.87;;
40599;SDS011;26309;50.924;4.754;2023-03-01T10:26:47;17.37;;;9.73;;
40599;SDS011;26309;50.924;4.754;2023-03-01T10:29:18;18.73;;;11.57;;
40599;SDS011;26309;50.924;4.754;2023-03-01T10:31:50;16.50;;;10.03;;
40599;SDS011;26309;50.924;4.754;2023-03-01T10:34:21;16.50;;;10.50;;
40599;SDS011;26309;50.924;4.754;2023-03-01T10:36:55;12.40;;;8.87;;
40599;SDS011;26309;50.924;4.754;2023-03-01T10:39:24;17.03;;;11.13;;
40599;SDS011;26309;50.924;4.754;2023-03-01T10:41:53;13.03;;;9.67;;
40599;SDS011;26309;50.924;4.754;2023-03-01T10:44:41;17.77;;;12.13;;
40599;SDS011;26309;50.924;4.754;2023-03-01T10:47:22;20.13;;;11.53;;
40599;SDS011;26309;50.924;4.754;2023-03-01T10:50:01;19.00;;;13.10;;
40599;SDS011;26309;50.924;4.754;2023-03-01T10:52:34;12.43;;;7.90;;
40599;SDS011;26309;50.924;4.754;2023-03-01T10:55:03;16.10;;;10.43;;
40599;SDS011;26309;50.924;4.754;2023-03-01T10:58:06;11.50;;;8.33;;
40599;SDS011;26309;50.924;4.754;2023-03-01T11:00:33;21.13;;;11.87;;
40599;SDS011;26309;50.924;4.754;2023-03-01T11:03:17;15.97;;;11.90;;
40599;SDS011;26309;50.924;4.754;2023-03-01T11:08:42;18.17;;;12.97;;
40599;SDS011;26309;50.924;4.754;2023-03-01T11:18:56;17.00;;;12.67;;
40599;SDS011;26309;50.924;4.754;2023-03-01T11:21:25;18.37;;;11.97;;
40599;SDS011;26309;50.924;4.754;2023-03-01T11:23:53;15.93;;;10.80;;
40599;SDS011;26309;50.924;4.754;2023-03-01T11:26:19;13.93;;;10.17;;
40599;SDS011;26309;50.924;4.754;2023-03-01T11:28:48;18.17;;;11.13;;
40599;SDS011;26309;50.924;4.754;2023-03-01T11:31:18;17.27;;;12.53;;
40599;SDS011;26309;50.924;4.754;2023-03-01T11:33:50;18.07;;;10.97;;
40599;SDS011;26309;50.924;4.754;2023-03-01T11:39:03;17.27;;;11.37;;
40599;SDS011;26309;50.924;4.754;2023-03-01T11:42:01;18.03;;;12.27;;
40599;SDS011;26309;50.924;4.754;2023-03-01T11:45:10;27.07;;;11.03;;
40599;SDS011;26309;50.924;4.754;2023-03-01T11:50:13;15.17;;;10.50;;
40599;SDS011;26309;50.924;4.754;2023-03-01T11:58:46;14.50;;;10.13;;
40599;SDS011;26309;50.924;4.754;2023-03-01T12:09:09;15.67;;;11.00;;
40599;SDS011;26309;50.924;4.754;2023-03-01T12:17:48;16.50;;;10.50;;
40599;SDS011;26309;50.924;4.754;2023-03-01T12:23:29;14.90;;;10.97;;
40599;SDS011;26309;50.924;4.754;2023-03-01T12:29:02;17.83;;;11.17;;
40599;SDS011;26309;50.924;4.754;2023-03-01T12:32:00;18.97;;;11.47;;
40599;SDS011;26309;50.924;4.754;2023-03-01T12:49:02;17.80;;;12.50;;
40599;SDS011;26309;50.924;4.754;2023-03-01T12:51:30;18.40;;;12.00;;
40599;SDS011;26309;50.924;4.754;2023-03-01T12:53:58;16.07;;;10.87;;
40599;SDS011;26309;50.924;4.754;2023-03-01T12:56:28;14.73;;;12.17;;
40599;SDS011;26309;50.924;4.754;2023-03-01T13:07:55;15.27;;;10.53;;
40599;SDS011;26309;50.924;4.754;2023-03-01T13:10:33;11.20;;;8.80;;
40599;SDS011;26309;50.924;4.754;2023-03-01T13:13:19;13.50;;;10.20;;
40599;SDS011;26309;50.924;4.754;2023-03-01T13:15:55;12.67;;;9.60;;
40599;SDS011;26309;50.924;4.754;2023-03-01T13:20:52;14.93;;;10.30;;
40599;SDS011;26309;50.924;4.754;2023-03-01T13:26:08;15.20;;;11.37;;
40599;SDS011;26309;50.924;4.754;2023-03-01T13:28:53;14.77;;;10.33;;
40599;SDS011;26309;50.924;4.754;2023-03-01T13:33:54;13.70;;;10.87;;
40599;SDS011;26309;50.924;4.754;2023-03-01T13:39:02;17.73;;;11.53;;
40599;SDS011;26309;50.924;4.754;2023-03-01T13:46:52;16.43;;;11.07;;
40599;SDS011;26309;50.924;4.754;2023-03-01T13:49:23;15.20;;;10.83;;
40599;SDS011;26309;50.924;4.754;2023-03-01T13:51:53;17.83;;;10.57;;
40599;SDS011;26309;50.924;4.754;2023-03-01T13:54:29;13.73;;;11.23;;
40599;SDS011;26309;50.924;4.754;2023-03-01T13:56:58;14.40;;;11.10;;
40599;SDS011;26309;50.924;4.754;2023-03-01T13:59:26;15.03;;;10.97;;
40599;SDS011;26309;50.924;4.754;2023-03-01T14:01:53;11.83;;;9.17;;
40599;SDS011;26309;50.924;4.754;2023-03-01T14:04:25;16.47;;;10.97;;
40599;SDS011;26309;50.924;4.754;2023-03-01T14:09:56;12.67;;;10.10;;
40599;SDS011;26309;50.924;4.754;2023-03-01T14:15:20;9.30;;;7.93;;
40599;SDS011;26309;50.924;4.754;2023-03-01T14:20:36;11.97;;;8.57;;
40599;SDS011;26309;50.924;4.754;2023-03-01T14:23:10;15.63;;;10.13;;
40599;SDS011;26309;50.924;4.754;2023-03-01T14:25:50;15.20;;;9.63;;
40599;SDS011;26309;50.924;4.754;2023-03-01T14:28:21;12.53;;;8.40;;
40599;SDS011;26309;50.924;4.754;2023-03-01T14:30:56;11.87;;;8.50;;
40599;SDS011;26309;50.924;4.754;2023-03-01T14:33:28;14.17;;;8.40;;
40599;SDS011;26309;50.924;4.754;2023-03-01T14:35:58;12.70;;;9.40;;
40599;SDS011;26309;50.924;4.754;2023-03-01T14:38:30;13.77;;;9.53;;
40599;SDS011;26309;50.924;4.754;2023-03-01T14:41:10;12.67;;;9.43;;
40599;SDS011;26309;50.924;4.754;2023-03-01T14:43:41;14.00;;;8.87;;
40599;SDS011;26309;50.924;4.754;2023-03-01T14:46:43;12.67;;;8.97;;
40599;SDS011;26309;50.924;4.754;2023-03-01T14:49:22;9.63;;;7.17;;
40599;SDS011;26309;50.924;4.754;2023-03-01T14:52:00;12.00;;;8.83;;
40599;SDS011;26309;50.924;4.754;2023-03-01T14:57:15;11.03;;;8.77;;
40599;SDS011;26309;50.924;4.754;2023-03-01T14:59:44;10.27;;;8.13;;
40599;SDS011;26309;50.924;4.754;2023-03-01T15:02:17;16.27;;;8.83;;
40599;SDS011;26309;50.924;4.754;2023-03-01T15:04:46;16.63;;;9.70;;
40599;SDS011;26309;50.924;4.754;2023-03-01T15:07:14;13.40;;;8.90;;
40599;SDS011;26309;50.924;4.754;2023-03-01T15:09:40;18.03;;;9.47;;
40599;SDS011;26309;50.924;4.754;2023-03-01T15:15:01;12.23;;;8.97;;
40599;SDS011;26309;50.924;4.754;2023-03-01T15:17:44;14.77;;;8.67;;
40599;SDS011;26309;50.924;4.754;2023-03-01T15:20:17;13.33;;;9.43;;
40599;SDS011;26309;50.924;4.754;2023-03-01T15:22:47;9.27;;;6.97;;
40599;SDS011;26309;50.924;4.754;2023-03-01T15:25:14;12.50;;;8.13;;
40599;SDS011;26309;50.924;4.754;2023-03-01T15:27:44;12.77;;;9.52;;
40599;SDS011;26309;50.924;4.754;2023-03-01T15:30:19;12.93;;;8.70;;
40599;SDS011;26309;50.924;4.754;2023-03-01T15:32:49;11.13;;;8.83;;
40599;SDS011;26309;50.924;4.754;2023-03-01T15:35:52;11.30;;;9.07;;
40599;SDS011;26309;50.924;4.754;2023-03-01T15:38:27;10.10;;;7.73;;
40599;SDS011;26309;50.924;4.754;2023-03-01T15:41:05;13.63;;;8.30;;
40599;SDS011;26309;50.924;4.754;2023-03-01T15:43:48;10.40;;;8.20;;
40599;SDS011;26309;50.924;4.754;2023-03-01T15:48:58;9.53;;;8.07;;
40599;SDS011;26309;50.924;4.754;2023-03-01T15:51:44;11.90;;;8.50;;
40599;SDS011;26309;50.924;4.754;2023-03-01T15:54:17;11.40;;;8.27;;
40599;SDS011;26309;50.924;4.754;2023-03-01T15:56:45;14.30;;;8.13;;
40599;SDS011;26309;50.924;4.754;2023-03-01T15:59:12;11.17;;;8.27;;
40599;SDS011;26309;50.924;4.754;2023-03-01T16:01:39;12.70;;;8.10;;
40599;SDS011;26309;50.924;4.754;2023-03-01T16:04:05;10.80;;;8.73;;
40599;SDS011;26309;50.924;4.754;2023-03-01T16:06:31;15.03;;;9.03;;
40599;SDS011;26309;50.924;4.754;2023-03-01T16:08:57;12.97;;;8.20;;
40599;SDS011;26309;50.924;4.754;2023-03-01T16:11:23;12.07;;;8.50;;
40599;SDS011;26309;50.924;4.754;2023-03-01T16:13:49;14.03;;;8.70;;
40599;SDS011;26309;50.924;4.754;2023-03-01T16:16:15;8.87;;;7.13;;
40599;SDS011;26309;50.924;4.754;2023-03-01T16:18:42;11.33;;;7.83;;
40599;SDS011;26309;50.924;4.754;2023-03-01T16:21:13;10.00;;;7.10;;
40599;SDS011;26309;50.924;4.754;2023-03-01T16:23:49;12.03;;;7.93;;
40599;SDS011;26309;50.924;4.754;2023-03-01T16:26:28;13.63;;;8.10;;
40599;SDS011;26309;50.924;4.754;2023-03-01T16:28:54;11.93;;;6.90;;
40599;SDS011;26309;50.924;4.754;2023-03-01T16:39:02;10.63;;;7.47;;
40599;SDS011;26309;50.924;4.754;2023-03-01T16:41:29;10.00;;;7.83;;
40599;SDS011;26309;50.924;4.754;2023-03-01T16:43:55;11.27;;;7.80;;
40599;SDS011;26309;50.924;4.754;2023-03-01T16:46:25;9.70;;;8.03;;